Time;durP1;ratioP1;P1;durP2;ratioP2;P2;SDS_P1;SDS_P2;PMS_P1;PMS_P2;Temp;Humidity;BMP_temperature;BMP_pressure;BME280_temperature;BME280_humidity;BME280_pressure;Samples;Min_cycle;Max_cycle;Signal;HPM_P1;HPM_P2
2023/08/05 00:00:57;;;;;;;6.93;4.80;;;14.70;99.90;;;;;;5115546;28;20176;-49
2023/08/05 00:03:23;;;;;;;6.43;5.30;;;14.60;99.90;;;;;;5115350;28;20172;-50
2023/08/05 00:05:48;;;;;;;5.82;5.13;;;14.70;99.90;;;;;;5114450;28;20176;-51
2023/08/05 00:08:14;;;;;;;5.80;5.20;;;14.70;99.90;;;;;;5115298;28;20290;-47
2023/08/05 00:10:44;;;;;;;7.88;5.22;;;14.70;99.90;;;;;;5115262;28;20180;-48
2023/08/05 00:13:10;;;;;;;7.22;6.13;;;14.50;99.90;;;;;;5115226;28;20205;-50
2023/08/05 00:15:35;;;;;;;7.45;5.18;;;14.50;99.90;;;;;;5114806;28;20233;-48
2023/08/05 00:18:01;;;;;;;5.78;5.10;;;14.60;99.90;;;;;;5115149;28;20184;-49
2023/08/05 00:20:27;;;;;;;9.82;5.97;;;14.60;99.90;;;;;;5115296;28;20224;-51
2023/08/05 00:22:52;;;;;;;6.57;5.07;;;14.60;99.90;;;;;;5115488;28;20173;-49
2023/08/05 00:25:18;;;;;;;5.47;4.90;;;14.70;99.90;;;;;;5115071;28;20185;-47
2023/08/05 00:27:44;;;;;;;6.00;4.85;;;14.60;99.90;;;;;;5114988;28;20568;-47
2023/08/05 00:30:10;;;;;;;4.93;4.50;;;14.60;99.90;;;;;;5114914;28;20161;-54
2023/08/05 00:32:36;;;;;;;5.95;4.90;;;14.60;99.90;;;;;;5114797;28;20642;-47
2023/08/05 00:35:06;;;;;;;6.72;5.30;;;14.50;99.90;;;;;;5113907;28;20165;-46
2023/08/05 00:37:32;;;;;;;5.82;5.22;;;14.60;99.90;;;;;;5114823;28;20178;-49
2023/08/05 00:39:58;;;;;;;7.63;6.15;;;14.50;99.90;;;;;;5114715;28;20169;-51
2023/08/05 00:42:26;;;;;;;6.10;5.50;;;14.50;99.90;;;;;;5114763;28;20168;-50
2023/08/05 00:44:52;;;;;;;7.30;5.90;;;14.50;99.90;;;;;;5114686;28;20174;-47
2023/08/05 00:47:18;;;;;;;6.60;5.57;;;14.40;99.90;;;;;;5114257;28;20178;-49
2023/08/05 00:49:45;;;;;;;6.68;6.00;;;14.50;99.90;;;;;;5114773;28;20177;-47
2023/08/05 00:52:13;;;;;;;8.45;6.80;;;14.50;99.90;;;;;;5114614;28;20165;-47
2023/08/05 00:54:40;;;;;;;8.48;6.85;;;14.50;99.90;;;;;;5114505;28;20169;-47
2023/08/05 00:57:07;;;;;;;8.15;6.60;;;14.50;99.90;;;;;;5114732;28;20208;-51
2023/08/05 00:59:32;;;;;;;8.07;7.28;;;14.40;99.90;;;;;;5114310;28;20531;-52
2023/08/05 01:01:58;;;;;;;8.55;6.95;;;14.50;99.90;;;;;;5114351;28;20177;-47
2023/08/05 01:04:24;;;;;;;8.13;6.78;;;14.30;99.90;;;;;;5114627;28;20177;-48
2023/08/05 01:06:50;;;;;;;6.47;5.85;;;14.30;99.90;;;;;;5114326;28;20176;-50
2023/08/05 01:09:16;;;;;;;7.07;6.03;;;14.40;99.90;;;;;;5114316;28;20205;-50
2023/08/05 01:11:42;;;;;;;7.50;6.30;;;14.40;99.90;;;;;;5114248;28;20226;-50
2023/08/05 01:14:08;;;;;;;7.22;6.53;;;14.40;99.90;;;;;;5113932;28;20584;-50
2023/08/05 01:16:33;;;;;;;7.85;7.05;;;14.40;99.90;;;;;;5114120;28;20219;-50
2023/08/05 01:18:59;;;;;;;8.23;7.43;;;14.40;99.90;;;;;;5113828;28;20225;-52
2023/08/05 01:22:03;;;;;;;7.95;7.20;;;14.30;99.90;;;;;;5114010;28;20226;-50
2023/08/05 01:24:39;;;;;;;7.65;6.93;;;14.40;99.90;;;;;;5100220;28;20637;-50
2023/08/05 01:27:07;;;;;;;8.07;7.28;;;14.30;99.90;;;;;;5114150;28;20161;-52
2023/08/05 01:29:32;;;;;;;8.10;7.30;;;14.20;99.90;;;;;;5114086;28;20174;-49
2023/08/05 01:31:58;;;;;;;8.80;7.70;;;14.30;99.90;;;;;;5113938;28;20230;-48
2023/08/05 01:34:25;;;;;;;8.43;7.57;;;14.30;99.90;;;;;;5113931;28;20170;-51
2023/08/05 01:36:50;;;;;;;7.63;6.85;;;14.30;99.90;;;;;;5113903;28;20673;-51
2023/08/05 01:39:16;;;;;;;8.18;7.20;;;14.30;99.90;;;;;;5113939;28;20181;-52
2023/08/05 01:41:42;;;;;;;8.20;7.18;;;14.20;99.90;;;;;;5113864;28;20180;-47
2023/08/05 01:44:07;;;;;;;9.27;7.55;;;14.20;99.90;;;;;;5113872;28;20576;-47
2023/08/05 01:46:33;;;;;;;9.60;7.55;;;14.20;99.90;;;;;;5114720;28;20177;-46
2023/08/05 01:48:58;;;;;;;8.63;7.28;;;14.20;99.90;;;;;;5118081;28;20169;-46
2023/08/05 01:51:24;;;;;;;7.55;6.85;;;14.10;99.90;;;;;;5118006;28;20195;-47
2023/08/05 01:53:50;;;;;;;7.82;7.13;;;14.20;99.90;;;;;;5117676;28;20177;-51
2023/08/05 01:56:15;;;;;;;8.38;7.57;;;14.10;99.90;;;;;;5117717;28;20223;-46
2023/08/05 01:58:41;;;;;;;8.80;7.30;;;14.10;99.90;;;;;;5117908;28;20861;-47
2023/08/05 02:01:06;;;;;;;8.10;7.22;;;14.10;99.90;;;;;;5117839;28;20184;-49
2023/08/05 02:03:32;;;;;;;7.68;6.95;;;14.10;99.90;;;;;;5117793;28;20169;-46
2023/08/05 02:05:58;;;;;;;10.90;7.30;;;14.10;99.90;;;;;;5117726;28;20178;-49
2023/08/05 02:08:23;;;;;;;8.40;7.60;;;14.10;99.90;;;;;;5117765;28;20535;-50
2023/08/05 02:10:49;;;;;;;7.90;7.10;;;14.10;99.90;;;;;;5117695;28;20173;-48
2023/08/05 02:13:16;;;;;;;8.15;7.30;;;14.10;99.90;;;;;;5117548;28;20182;-47
2023/08/05 02:15:42;;;;;;;7.90;7.13;;;14.00;99.90;;;;;;5117171;28;20670;-52
2023/08/05 02:18:08;;;;;;;9.35;8.25;;;14.10;99.90;;;;;;5117556;28;20207;-50
2023/08/05 02:20:34;;;;;;;8.20;7.40;;;14.10;99.90;;;;;;5117525;28;20255;-50
2023/08/05 02:23:00;;;;;;;8.32;7.53;;;14.10;99.90;;;;;;5117449;28;20181;-47
2023/08/05 02:25:26;;;;;;;11.35;8.25;;;14.10;99.90;;;;;;5117361;28;20507;-47
2023/08/05 02:27:51;;;;;;;10.10;8.32;;;14.10;99.90;;;;;;5117102;28;20255;-49
2023/08/05 02:30:18;;;;;;;10.30;7.38;;;14.10;99.90;;;;;;5117280;28;20688;-46
2023/08/05 02:32:43;;;;;;;9.73;7.95;;;14.10;99.90;;;;;;5117238;28;20165;-47
2023/08/05 02:35:09;;;;;;;10.07;7.63;;;14.20;99.90;;;;;;5117048;28;20617;-47
2023/08/05 02:37:35;;;;;;;7.68;6.97;;;14.20;99.90;;;;;;5117444;28;20221;-48
2023/08/05 02:40:00;;;;;;;8.35;7.57;;;14.30;99.90;;;;;;5117081;28;20169;-47
2023/08/05 02:42:26;;;;;;;8.23;7.43;;;14.20;99.90;;;;;;5117041;28;20188;-48
2023/08/05 02:44:52;;;;;;;7.95;7.15;;;14.20;99.90;;;;;;5117148;28;20169;-52
2023/08/05 02:47:17;;;;;;;7.72;7.07;;;14.20;99.90;;;;;;5117259;28;20173;-50
2023/08/05 02:49:43;;;;;;;8.07;7.30;;;14.10;99.90;;;;;;5116973;28;20545;-49
2023/08/05 02:52:08;;;;;;;9.43;7.30;;;14.20;99.90;;;;;;5116903;28;20173;-49
2023/08/05 02:54:34;;;;;;;8.07;7.25;;;14.20;99.90;;;;;;5116815;28;20173;-50
2023/08/05 02:57:00;;;;;;;7.75;7.05;;;14.20;99.90;;;;;;5116754;28;20213;-48
2023/08/05 02:59:25;;;;;;;7.70;7.00;;;14.20;99.90;;;;;;5115654;28;20197;-49
2023/08/05 03:01:51;;;;;;;8.27;7.20;;;14.20;99.90;;;;;;5116733;28;20174;-46
2023/08/05 03:04:17;;;;;;;8.70;7.90;;;14.20;99.90;;;;;;5116635;28;20181;-49
2023/08/05 03:06:43;;;;;;;7.78;7.00;;;14.10;99.90;;;;;;5116606;28;20177;-47
2023/08/05 03:09:08;;;;;;;9.00;8.05;;;14.10;99.90;;;;;;5116562;28;20230;-47
2023/08/05 03:11:34;;;;;;;8.25;7.45;;;14.00;99.90;;;;;;5116605;28;20638;-46
2023/08/05 03:14:00;;;;;;;8.02;7.00;;;14.00;99.90;;;;;;5116475;28;20662;-48
2023/08/05 03:16:26;;;;;;;9.07;8.20;;;14.00;99.90;;;;;;5115035;28;20270;-52
2023/08/05 03:18:51;;;;;;;9.38;8.40;;;14.00;99.90;;;;;;5116244;28;20225;-46
2023/08/05 03:21:17;;;;;;;10.38;8.15;;;14.00;99.90;;;;;;5115934;28;20162;-51
2023/08/05 03:23:42;;;;;;;9.02;7.93;;;14.00;99.90;;;;;;5116160;28;20188;-46
2023/08/05 03:26:08;;;;;;;9.40;8.50;;;14.00;99.90;;;;;;5116234;28;20178;-48
2023/08/05 03:28:34;;;;;;;8.95;8.02;;;14.00;99.90;;;;;;5116169;28;20169;-49
2023/08/05 03:30:59;;;;;;;8.85;7.95;;;14.10;99.90;;;;;;5116101;28;20177;-51
2023/08/05 03:33:25;;;;;;;8.27;7.38;;;14.10;99.90;;;;;;5116100;28;20227;-51
2023/08/05 03:35:51;;;;;;;10.25;7.90;;;14.10;99.90;;;;;;5115692;28;20241;-50
2023/08/05 03:38:17;;;;;;;11.48;8.15;;;14.20;99.90;;;;;;5116025;28;20614;-47
2023/08/05 03:40:43;;;;;;;8.85;7.95;;;14.20;99.90;;;;;;5115947;28;20178;-50
2023/08/05 03:43:09;;;;;;;9.25;8.43;;;14.20;99.90;;;;;;5115615;28;20168;-49
2023/08/05 03:45:34;;;;;;;9.77;8.10;;;14.10;99.90;;;;;;5115532;28;20256;-49
2023/08/05 03:48:00;;;;;;;10.13;8.50;;;14.20;99.90;;;;;;5115823;28;20198;-48
2023/08/05 03:50:28;;;;;;;9.18;8.18;;;14.20;99.90;;;;;;5115803;28;20162;-47
2023/08/05 03:52:54;;;;;;;9.35;8.25;;;14.10;99.90;;;;;;5115721;28;20173;-48
2023/08/05 03:55:21;;;;;;;10.07;7.65;;;14.10;99.90;;;;;;5115600;28;20220;-48
2023/08/05 03:57:47;;;;;;;11.55;7.55;;;14.20;99.90;;;;;;5115548;28;20189;-49
2023/08/05 04:00:13;;;;;;;10.05;7.30;;;14.20;99.90;;;;;;5115570;28;20189;-50
2023/08/05 04:02:39;;;;;;;8.35;7.50;;;14.20;99.90;;;;;;5115504;28;20209;-49
2023/08/05 04:05:05;;;;;;;8.45;7.53;;;14.20;99.90;;;;;;5115674;28;20698;-49
2023/08/05 04:07:31;;;;;;;11.45;7.45;;;14.20;99.90;;;;;;5115425;28;20169;-49
2023/08/05 04:09:57;;;;;;;8.75;7.68;;;14.20;99.90;;;;;;5115167;28;20169;-49
2023/08/05 04:12:23;;;;;;;12.38;7.60;;;14.20;99.90;;;;;;5115341;28;20522;-50
2023/08/05 04:14:52;;;;;;;8.57;6.88;;;14.20;99.90;;;;;;5115058;28;20264;-50
2023/08/05 04:17:19;;;;;;;7.85;7.10;;;14.20;99.90;;;;;;5115106;28;20562;-49
2023/08/05 04:19:46;;;;;;;9.00;7.47;;;14.20;99.90;;;;;;5115091;28;20299;-48
2023/08/05 04:22:12;;;;;;;10.02;7.43;;;14.20;99.90;;;;;;5115056;28;20263;-48
2023/08/05 04:24:41;;;;;;;7.88;7.07;;;14.20;99.90;;;;;;5115068;28;20184;-49
2023/08/05 04:27:07;;;;;;;7.90;7.05;;;14.20;99.90;;;;;;5115009;28;20233;-46
2023/08/05 04:29:32;;;;;;;8.18;7.05;;;14.20;99.90;;;;;;5114996;27;20262;-50
2023/08/05 04:31:58;;;;;;;7.80;6.97;;;14.20;99.90;;;;;;5114923;28;20666;-50
2023/08/05 04:34:24;;;;;;;7.28;6.57;;;14.20;99.90;;;;;;5115144;28;20303;-47
2023/08/05 04:36:51;;;;;;;8.68;7.05;;;14.30;99.90;;;;;;5114726;27;20220;-51
2023/08/05 04:39:20;;;;;;;7.95;6.97;;;14.30;99.90;;;;;;5114733;28;20178;-49
2023/08/05 04:41:45;;;;;;;8.10;7.15;;;14.30;99.90;;;;;;5114500;28;20664;-49
2023/08/05 04:44:11;;;;;;;8.30;7.35;;;14.30;99.90;;;;;;5114750;28;20256;-52
2023/08/05 04:46:37;;;;;;;7.57;6.85;;;14.30;99.90;;;;;;5114398;28;20183;-51
2023/08/05 04:49:05;;;;;;;8.15;6.70;;;14.30;99.90;;;;;;5114674;28;20614;-46
2023/08/05 04:51:31;;;;;;;7.50;6.72;;;14.40;99.90;;;;;;5114395;28;20237;-53
2023/08/05 04:53:56;;;;;;;8.60;6.65;;;14.40;99.90;;;;;;5114552;28;20610;-50
2023/08/05 04:56:25;;;;;;;7.60;6.85;;;14.40;99.90;;;;;;5114733;28;20212;-49
2023/08/05 04:58:51;;;;;;;9.32;7.35;;;14.50;99.90;;;;;;5114100;28;20622;-50
2023/08/05 05:01:17;;;;;;;7.53;6.35;;;14.50;99.90;;;;;;5114423;28;20244;-49
2023/08/05 05:03:46;;;;;;;7.43;6.30;;;14.40;99.90;;;;;;5114383;28;20204;-48
2023/08/05 05:06:12;;;;;;;7.30;6.55;;;14.40;99.90;;;;;;5114335;28;20173;-49
2023/08/05 05:08:38;;;;;;;6.85;6.15;;;14.50;99.90;;;;;;5114287;28;20193;-50
2023/08/05 05:11:03;;;;;;;6.40;5.75;;;14.50;99.90;;;;;;5114009;28;20212;-48
2023/08/05 05:13:29;;;;;;;6.93;5.97;;;14.50;99.90;;;;;;5114270;28;20173;-47
2023/08/05 05:15:54;;;;;;;6.97;5.90;;;14.50;99.90;;;;;;5113733;28;20586;-51
2023/08/05 05:18:20;;;;;;;6.03;5.38;;;14.50;99.90;;;;;;5113962;28;20518;-48
2023/08/05 05:20:50;;;;;;;8.48;6.07;;;14.50;99.90;;;;;;5113715;28;20172;-47
2023/08/05 05:23:16;;;;;;;7.10;5.43;;;14.50;99.90;;;;;;5114221;28;20181;-49
2023/08/05 05:25:41;;;;;;;6.25;5.50;;;14.60;99.90;;;;;;5113867;28;20266;-49
2023/08/05 05:28:07;;;;;;;5.68;5.22;;;14.60;99.90;;;;;;5113740;28;20638;-52
2023/08/05 05:30:35;;;;;;;6.97;6.25;;;14.60;99.90;;;;;;5113884;28;20204;-51
2023/08/05 05:33:01;;;;;;;7.20;5.65;;;14.60;99.90;;;;;;5113558;28;20706;-51
2023/08/05 05:35:28;;;;;;;7.78;5.63;;;14.70;99.90;;;;;;5113399;28;20204;-52
2023/08/05 05:37:54;;;;;;;7.35;5.50;;;14.70;99.90;;;;;;5113434;28;20269;-52
2023/08/05 05:40:20;;;;;;;5.90;5.30;;;14.70;99.90;;;;;;5113399;28;20657;-49
2023/08/05 05:42:48;;;;;;;7.03;5.40;;;14.80;99.90;;;;;;5113471;28;20193;-49
2023/08/05 05:45:14;;;;;;;5.80;5.10;;;14.80;99.90;;;;;;5113344;28;20177;-49
2023/08/05 05:47:40;;;;;;;6.15;5.55;;;14.80;99.90;;;;;;5113240;28;20176;-51
2023/08/05 05:50:06;;;;;;;6.43;5.60;;;14.80;99.90;;;;;;5113245;28;20522;-51
2023/08/05 05:52:32;;;;;;;5.90;5.40;;;14.90;99.90;;;;;;5113331;28;20740;-50
2023/08/05 05:54:58;;;;;;;6.25;5.65;;;14.90;99.90;;;;;;5111983;28;20221;-49
2023/08/05 05:57:23;;;;;;;6.45;5.25;;;14.90;99.90;;;;;;5112999;28;20205;-50
2023/08/05 05:59:49;;;;;;;6.35;5.40;;;15.00;99.90;;;;;;5113467;28;20176;-51
2023/08/05 06:02:15;;;;;;;6.97;6.28;;;15.00;99.90;;;;;;5113302;28;20634;-51
2023/08/05 06:04:43;;;;;;;8.45;5.65;;;15.00;99.90;;;;;;5113444;28;20248;-49
2023/08/05 06:07:09;;;;;;;6.95;6.10;;;15.10;99.90;;;;;;5113350;28;20178;-52
2023/08/05 06:09:35;;;;;;;12.18;6.53;;;15.20;99.90;;;;;;5113003;28;20673;-47
2023/08/05 06:12:01;;;;;;;7.70;6.90;;;15.20;99.90;;;;;;5113095;28;20315;-50
2023/08/05 06:14:29;;;;;;;7.22;6.63;;;15.00;99.90;;;;;;5113190;28;20174;-53
2023/08/05 06:16:55;;;;;;;8.27;6.47;;;15.00;99.90;;;;;;5113288;28;20205;-47
2023/08/05 06:19:21;;;;;;;8.13;6.97;;;15.10;99.90;;;;;;5113164;28;20221;-48
2023/08/05 06:21:47;;;;;;;10.73;8.13;;;15.20;99.90;;;;;;5111691;28;20173;-51
2023/08/05 06:24:12;;;;;;;9.60;8.43;;;15.20;99.90;;;;;;5112603;28;20671;-51
2023/08/05 06:26:38;;;;;;;10.25;9.20;;;15.30;99.90;;;;;;5113322;28;20272;-49
2023/08/05 06:29:04;;;;;;;10.02;8.93;;;15.30;99.90;;;;;;5113288;28;20177;-52
2023/08/05 06:31:30;;;;;;;11.00;8.77;;;15.40;99.90;;;;;;5113043;28;20176;-51
2023/08/05 06:33:56;;;;;;;9.45;8.30;;;15.40;99.90;;;;;;5115017;28;20205;-52
2023/08/05 06:36:22;;;;;;;9.88;8.88;;;15.40;99.90;;;;;;5116897;28;20304;-50
2023/08/05 06:38:48;;;;;;;10.48;9.13;;;15.50;99.90;;;;;;5117024;28;20685;-53
2023/08/05 06:41:13;;;;;;;12.50;10.40;;;15.50;99.90;;;;;;5116601;28;20180;-53
2023/08/05 06:43:39;;;;;;;16.08;10.23;;;15.60;99.90;;;;;;5116668;28;20177;-52
2023/08/05 06:46:05;;;;;;;12.25;9.07;;;15.50;99.90;;;;;;5116907;28;20180;-52
2023/08/05 06:48:31;;;;;;;10.70;9.55;;;15.60;99.90;;;;;;5116708;28;20205;-52
2023/08/05 06:50:56;;;;;;;10.85;9.02;;;15.70;99.90;;;;;;5117187;28;20656;-52
2023/08/05 06:53:22;;;;;;;12.52;10.15;;;15.80;99.90;;;;;;5116689;28;20641;-51
2023/08/05 06:55:48;;;;;;;11.90;9.45;;;15.90;99.90;;;;;;5116056;28;20205;-51
2023/08/05 06:58:13;;;;;;;12.10;9.60;;;15.80;99.90;;;;;;5116391;28;20184;-51
2023/08/05 07:00:39;;;;;;;11.68;9.35;;;16.10;99.90;;;;;;5116536;28;20174;-50
2023/08/05 07:03:05;;;;;;;12.13;9.65;;;16.20;99.90;;;;;;5116414;28;20195;-51
2023/08/05 07:05:31;;;;;;;11.40;9.90;;;16.30;99.90;;;;;;5116540;28;20260;-49
2023/08/05 07:07:56;;;;;;;13.43;10.18;;;16.30;99.90;;;;;;5116515;28;20178;-47
2023/08/05 07:10:23;;;;;;;11.65;9.52;;;16.40;99.90;;;;;;5116539;28;20173;-50
2023/08/05 07:12:49;;;;;;;13.60;10.23;;;16.50;99.90;;;;;;5116496;28;20180;-49
2023/08/05 07:15:15;;;;;;;9.98;9.07;;;16.50;99.90;;;;;;5116067;28;20185;-50
2023/08/05 07:17:41;;;;;;;11.98;9.38;;;16.30;99.90;;;;;;5116265;28;20193;-46
2023/08/05 07:20:07;;;;;;;11.77;9.85;;;16.50;99.90;;;;;;5115854;28;20661;-50
2023/08/05 07:22:33;;;;;;;12.32;9.00;;;16.70;99.90;;;;;;5116045;28;20174;-51
2023/08/05 07:24:58;;;;;;;11.85;8.88;;;16.70;99.90;;;;;;5116017;28;20507;-50
2023/08/05 07:27:24;;;;;;;10.05;9.05;;;16.80;99.90;;;;;;5116281;28;20226;-49
2023/08/05 07:29:49;;;;;;;9.77;8.82;;;17.00;99.90;;;;;;5116138;28;20165;-49
2023/08/05 07:32:15;;;;;;;11.35;9.35;;;16.90;99.90;;;;;;5116121;28;20261;-51
2023/08/05 07:34:41;;;;;;;11.68;8.90;;;17.00;99.90;;;;;;5116108;28;20170;-51
2023/08/05 07:37:06;;;;;;;10.38;8.07;;;17.00;99.90;;;;;;5115782;28;20541;-51
2023/08/05 07:39:35;;;;;;;13.32;7.88;;;17.20;99.90;;;;;;5116045;28;20215;-52
2023/08/05 07:42:05;;;;;;;8.07;7.15;;;17.30;99.90;;;;;;5115883;28;20273;-50
2023/08/05 07:44:31;;;;;;;9.90;7.22;;;17.20;99.90;;;;;;5115299;28;20760;-52
2023/08/05 07:47:00;;;;;;;8.52;6.65;;;17.00;99.90;;;;;;5115777;28;20264;-51
2023/08/05 07:49:26;;;;;;;9.52;6.50;;;17.10;99.90;;;;;;5115813;28;20226;-48
2023/08/05 07:51:53;;;;;;;8.73;6.70;;;17.10;99.90;;;;;;5115720;28;20174;-50
2023/08/05 07:54:20;;;;;;;6.55;5.90;;;17.00;99.90;;;;;;5115952;28;20169;-51
2023/08/05 07:56:46;;;;;;;6.97;5.72;;;16.90;99.90;;;;;;5115242;28;20204;-50
2023/08/05 07:59:12;;;;;;;6.50;5.90;;;16.90;99.90;;;;;;5115576;28;20170;-52
2023/08/05 08:01:42;;;;;;;7.30;5.70;;;16.90;99.90;;;;;;5115598;28;20222;-49
2023/08/05 08:04:09;;;;;;;7.78;5.30;;;16.80;99.90;;;;;;5115374;28;20181;-49
2023/08/05 08:06:35;;;;;;;8.27;5.25;;;16.90;99.90;;;;;;5115371;28;20189;-52
2023/08/05 08:09:00;;;;;;;9.60;4.88;;;16.90;99.90;;;;;;5115263;28;20226;-51
2023/08/05 08:11:26;;;;;;;8.02;4.85;;;17.00;99.90;;;;;;5115184;28;20639;-48
2023/08/05 08:13:52;;;;;;;7.68;4.63;;;17.00;99.90;;;;;;5115208;28;20211;-47
2023/08/05 08:16:20;;;;;;;5.63;4.50;;;17.20;99.90;;;;;;5115132;28;20201;-50
2023/08/05 08:18:45;;;;;;;8.93;4.35;;;17.30;99.90;;;;;;5115271;28;20225;-51
2023/08/05 08:21:11;;;;;;;5.07;3.80;;;17.20;99.90;;;;;;5115219;28;20176;-51
2023/08/05 08:23:37;;;;;;;8.88;4.30;;;17.30;99.90;;;;;;5114821;28;20181;-48
2023/08/05 08:26:02;;;;;;;8.05;3.75;;;17.40;99.90;;;;;;5114841;28;20511;-52
2023/08/05 08:28:28;;;;;;;8.00;3.97;;;17.40;99.90;;;;;;5115060;28;20650;-49
2023/08/05 08:30:55;;;;;;;7.13;3.85;;;17.60;99.90;;;;;;5114924;28;20173;-48
2023/08/05 08:33:25;;;;;;;10.48;3.70;;;17.60;99.90;;;;;;5114877;28;20283;-49
2023/08/05 08:35:52;;;;;;;5.63;2.83;;;17.80;99.90;;;;;;5114720;28;20251;-51
2023/08/05 08:38:18;;;;;;;6.05;2.90;;;17.90;99.90;;;;;;5114530;28;20634;-50
2023/08/05 08:40:48;;;;;;;9.18;3.28;;;18.10;99.90;;;;;;5114961;28;20231;-52
2023/08/05 08:43:18;;;;;;;4.68;2.60;;;18.40;99.90;;;;;;5114641;28;20177;-52
2023/08/05 08:45:46;;;;;;;3.90;2.10;;;18.30;99.90;;;;;;5114684;28;20173;-51
2023/08/05 08:48:12;;;;;;;3.78;2.67;;;18.20;99.90;;;;;;5114578;28;20280;-53
2023/08/05 08:50:40;;;;;;;5.18;2.47;;;18.10;99.90;;;;;;5114336;28;20197;-52
2023/08/05 08:53:08;;;;;;;7.68;3.20;;;18.20;99.90;;;;;;5114589;28;20173;-51
2023/08/05 08:55:35;;;;;;;5.55;2.67;;;18.30;99.90;;;;;;5113965;28;20201;-50
2023/08/05 08:58:01;;;;;;;5.82;2.63;;;18.50;99.90;;;;;;5114416;28;20204;-51
2023/08/05 09:00:27;;;;;;;6.28;2.30;;;18.70;99.90;;;;;;5114488;28;20176;-50
2023/08/05 09:02:53;;;;;;;9.85;2.90;;;18.60;99.90;;;;;;5114443;28;20522;-51
2023/08/05 09:05:19;;;;;;;6.45;2.63;;;18.60;99.90;;;;;;5114096;28;20169;-52
2023/08/05 09:07:46;;;;;;;3.92;2.17;;;18.40;99.90;;;;;;5114352;28;20208;-49
2023/08/05 09:10:12;;;;;;;3.42;2.13;;;18.50;99.90;;;;;;5114330;28;20626;-52
2023/08/05 09:12:38;;;;;;;2.88;2.08;;;18.70;99.90;;;;;;5114747;28;20174;-51
2023/08/05 09:15:04;;;;;;;6.32;2.38;;;18.40;99.90;;;;;;5114228;28;20174;-52
2023/08/05 09:17:38;;;;;;;5.10;2.42;;;18.20;99.90;;;;;;5114143;28;20224;-53
2023/08/05 09:20:22;;;;;;;3.47;2.20;;;18.00;99.90;;;;;;5114331;28;20220;-49
2023/08/05 09:23:00;;;;;;;4.97;2.40;;;17.90;99.90;;;;;;5113790;28;20634;-51
2023/08/05 09:25:26;;;;;;;3.90;1.92;;;17.90;99.90;;;;;;5114317;28;20185;-50
2023/08/05 09:27:53;;;;;;;4.30;2.22;;;17.80;99.90;;;;;;5114132;28;20655;-49
2023/08/05 09:30:23;;;;;;;3.88;2.30;;;17.80;99.90;;;;;;5113950;28;20181;-53
2023/08/05 09:32:49;;;;;;;4.45;2.45;;;17.70;99.90;;;;;;5113944;28;20538;-51
2023/08/05 09:35:16;;;;;;;4.28;2.35;;;17.60;99.90;;;;;;5113855;28;20176;-51
2023/08/05 09:37:46;;;;;;;4.88;3.03;;;17.50;99.90;;;;;;5113938;28;20174;-52
2023/08/05 09:40:24;;;;;;;4.30;2.53;;;17.60;99.90;;;;;;5113916;28;20633;-50
2023/08/05 09:42:52;;;;;;;5.40;2.58;;;17.60;99.90;;;;;;5113843;28;20634;-52
2023/08/05 09:45:20;;;;;;;8.13;3.00;;;17.50;99.90;;;;;;5114394;28;20180;-53
2023/08/05 09:47:47;;;;;;;3.60;2.75;;;17.50;99.90;;;;;;5113772;28;20629;-52
2023/08/05 09:50:14;;;;;;;5.28;2.80;;;17.60;99.90;;;;;;5113824;28;20178;-52
2023/08/05 09:52:41;;;;;;;4.78;2.78;;;17.80;99.90;;;;;;5113814;28;20177;-50
2023/08/05 09:55:14;;;;;;;3.47;2.83;;;18.10;99.90;;;;;;5113746;28;20259;-52
2023/08/05 09:57:41;;;;;;;5.28;2.67;;;18.30;99.90;;;;;;5113449;28;20638;-51
2023/08/05 10:00:10;;;;;;;3.83;2.53;;;18.60;99.90;;;;;;5113722;28;20541;-52
2023/08/05 10:02:36;;;;;;;3.47;2.63;;;18.60;99.90;;;;;;5114043;28;20207;-52
2023/08/05 10:05:02;;;;;;;4.43;2.53;;;18.40;99.90;;;;;;5113735;28;20856;-53
2023/08/05 10:07:28;;;;;;;4.78;2.80;;;18.20;99.90;;;;;;5114758;28;20169;-53
2023/08/05 10:09:55;;;;;;;4.30;2.80;;;18.00;99.90;;;;;;5116775;28;20542;-50
2023/08/05 10:12:25;;;;;;;5.15;2.83;;;17.80;99.90;;;;;;5117636;28;20272;-53
2023/08/05 10:14:54;;;;;;;4.22;3.08;;;17.50;99.90;;;;;;5118004;28;20563;-52
2023/08/05 10:17:21;;;;;;;4.55;2.58;;;17.40;99.90;;;;;;5117524;28;20193;-50
2023/08/05 10:19:50;;;;;;;5.05;2.92;;;17.40;99.90;;;;;;5117411;28;20577;-52
2023/08/05 10:22:22;;;;;;;4.63;3.10;;;17.40;99.90;;;;;;5117765;28;20177;-52
2023/08/05 10:24:57;;;;;;;5.30;3.63;;;17.40;99.90;;;;;;5117592;28;20248;-51
2023/08/05 10:27:40;;;;;;;5.15;3.58;;;17.30;99.90;;;;;;5117326;28;20641;-49
2023/08/05 10:30:10;;;;;;;3.70;3.20;;;17.10;99.90;;;;;;5117309;28;20173;-52
2023/08/05 10:32:52;;;;;;;6.60;3.10;;;17.10;99.90;;;;;;5117253;28;20271;-52
2023/08/05 10:35:28;;;;;;;5.25;3.30;;;17.10;99.90;;;;;;5117259;28;20190;-49
2023/08/05 10:38:17;;;;;;;5.55;4.00;;;17.10;99.90;;;;;;5117138;28;20621;-51
2023/08/05 10:40:51;;;;;;;4.75;3.50;;;17.10;99.90;;;;;;5107512;28;20735;-53
2023/08/05 10:43:31;;;;;;;4.20;3.80;;;17.10;99.90;;;;;;5117112;28;20180;-48
2023/08/05 10:46:08;;;;;;;6.45;3.92;;;17.00;99.90;;;;;;5117234;28;20514;-51
2023/08/05 10:48:42;;;;;;;6.75;3.70;;;16.90;99.90;;;;;;5117082;28;20175;-52
2023/08/05 10:51:22;;;;;;;7.95;4.07;;;16.90;99.90;;;;;;5116934;28;20252;-53
2023/08/05 10:53:50;;;;;;;5.18;3.83;;;16.80;99.90;;;;;;5116979;28;20168;-53
2023/08/05 10:56:16;;;;;;;5.70;4.32;;;16.70;99.90;;;;;;5116790;28;20300;-50
2023/08/05 10:58:50;;;;;;;7.28;4.45;;;16.50;99.90;;;;;;5116712;28;20170;-48
2023/08/05 11:01:17;;;;;;;5.35;3.97;;;16.50;99.90;;;;;;5115487;28;20166;-52
2023/08/05 11:03:47;;;;;;;6.03;4.22;;;16.40;99.90;;;;;;5116998;28;20180;-51
2023/08/05 11:06:14;;;;;;;5.93;4.47;;;16.50;99.90;;;;;;5116574;28;20222;-49
2023/08/05 11:08:42;;;;;;;5.60;4.05;;;16.40;99.90;;;;;;5116572;28;20176;-51
2023/08/05 11:11:08;;;;;;;6.45;4.55;;;16.30;99.90;;;;;;5116579;28;20165;-48
2023/08/05 11:13:38;;;;;;;8.93;5.40;;;16.20;99.90;;;;;;5116522;28;20173;-51
2023/08/05 11:16:17;;;;;;;7.45;5.38;;;16.20;99.90;;;;;;5116399;28;20202;-47
2023/08/05 11:18:55;;;;;;;6.20;4.78;;;16.20;99.90;;;;;;5115563;28;20221;-49
2023/08/05 11:21:21;;;;;;;7.20;4.53;;;16.20;99.90;;;;;;5115970;28;20719;-48
2023/08/05 11:23:47;;;;;;;8.27;4.68;;;16.30;99.90;;;;;;5116265;28;20173;-51
2023/08/05 11:26:13;;;;;;;6.40;4.93;;;16.40;99.90;;;;;;5116553;28;20181;-51
2023/08/05 11:28:44;;;;;;;6.80;4.65;;;16.30;99.90;;;;;;5116128;28;20265;-52
2023/08/05 11:31:10;;;;;;;6.07;4.50;;;16.40;99.90;;;;;;5115864;28;20653;-48
2023/08/05 11:33:35;;;;;;;8.00;4.50;;;16.40;99.90;;;;;;5116098;28;20260;-49
2023/08/05 11:36:01;;;;;;;8.05;5.18;;;16.40;99.90;;;;;;5115947;28;20589;-50
2023/08/05 11:38:27;;;;;;;7.80;4.80;;;16.50;99.90;;;;;;5116002;28;20169;-49
2023/08/05 11:40:55;;;;;;;7.63;5.15;;;16.50;99.90;;;;;;5115813;28;20173;-47
2023/08/05 11:43:22;;;;;;;5.40;4.35;;;16.50;99.90;;;;;;5115808;28;20209;-49
2023/08/05 11:45:54;;;;;;;6.38;4.50;;;16.50;99.90;;;;;;5115816;28;20185;-47
2023/08/05 11:48:25;;;;;;;7.03;4.90;;;16.60;99.90;;;;;;5115543;28;20200;-51
2023/08/05 11:50:57;;;;;;;8.32;5.20;;;16.70;99.90;;;;;;5115784;28;20170;-48
2023/08/05 11:53:22;;;;;;;7.13;5.07;;;16.80;99.90;;;;;;5115762;28;20169;-50
2023/08/05 11:55:48;;;;;;;8.38;4.47;;;16.90;99.90;;;;;;5115639;28;20201;-52
2023/08/05 11:58:14;;;;;;;6.55;4.30;;;16.90;99.90;;;;;;5115621;28;20459;-50
2023/08/05 12:00:49;;;;;;;8.52;5.05;;;17.10;99.90;;;;;;5115565;28;20169;-52
2023/08/05 12:03:15;;;;;;;9.38;4.68;;;17.30;99.90;;;;;;5115654;28;20160;-52
2023/08/05 12:05:42;;;;;;;5.70;3.95;;;17.30;99.90;;;;;;5115816;28;20185;-51
2023/08/05 12:08:08;;;;;;;6.78;3.80;;;17.40;99.90;;;;;;5115464;28;20173;-48
2023/08/05 12:10:33;;;;;;;7.45;3.97;;;17.30;99.90;;;;;;5115684;28;20743;-49
2023/08/05 12:13:05;;;;;;;5.40;4.03;;;17.20;99.90;;;;;;5115356;28;20193;-48
2023/08/05 12:15:31;;;;;;;8.05;3.95;;;17.30;99.90;;;;;;5115581;28;20222;-49
2023/08/05 12:18:02;;;;;;;6.15;4.28;;;17.20;99.90;;;;;;5115213;28;20173;-49
2023/08/05 12:20:30;;;;;;;6.85;3.85;;;17.20;99.90;;;;;;5114858;28;20231;-51
2023/08/05 12:22:58;;;;;;;6.85;3.63;;;17.30;99.90;;;;;;5114811;28;20166;-48
2023/08/05 12:25:25;;;;;;;5.57;3.85;;;17.40;99.90;;;;;;5115073;28;20181;-49
2023/08/05 12:27:51;;;;;;;4.85;3.47;;;17.40;99.90;;;;;;5115046;28;20165;-47
2023/08/05 12:30:16;;;;;;;6.13;3.70;;;17.30;99.90;;;;;;5114629;28;20586;-50
2023/08/05 12:32:42;;;;;;;5.28;3.67;;;17.30;99.90;;;;;;5114968;28;20256;-50
2023/08/05 12:35:09;;;;;;;4.97;3.40;;;17.30;99.90;;;;;;5114890;28;20534;-52
2023/08/05 12:37:36;;;;;;;5.55;3.17;;;17.30;99.90;;;;;;5114702;28;20200;-52
2023/08/05 12:40:07;;;;;;;5.50;3.35;;;17.20;99.90;;;;;;5114798;28;20209;-49
2023/08/05 12:42:33;;;;;;;6.90;3.30;;;17.20;99.90;;;;;;5114790;28;20165;-53
2023/08/05 12:45:03;;;;;;;5.65;3.20;;;17.20;99.90;;;;;;5114767;28;20169;-49